createdAt,value
2015-09-11T00:00:09.271Z,81.46
2015-09-11T00:00:21.695Z,81.46
2015-09-11T00:00:34.133Z,81.46
2015-09-11T00:00:46.554Z,81.56
2015-09-11T00:00:58.804Z,81.46
2015-09-11T00:01:11.195Z,81.56
2015-09-11T00:01:23.588Z,81.46
2015-09-11T00:01:36.010Z,81.46
2015-09-11T00:01:48.494Z,81.18
2015-09-11T00:02:00.885Z,81.09
2015-09-11T00:02:13.275Z,81.18
2015-09-11T00:02:25.682Z,81.18
2015-09-11T00:02:38.073Z,81.65
2015-09-11T00:02:50.589Z,81.37
2015-09-11T00:03:03.026Z,81.56
2015-09-11T00:03:15.432Z,81.46
2015-09-11T00:03:28.913Z,82.03
2015-09-11T00:03:42.512Z,82.03
2015-09-11T00:03:57.365Z,81.74
2015-09-11T00:04:12.199Z,81.93
2015-09-11T00:04:25.668Z,81.84
2015-09-11T00:04:38.691Z,81.84
2015-09-11T00:04:50.985Z,82.03
2015-09-11T00:05:03.220Z,82.12
2015-09-11T00:05:15.454Z,82.12
2015-09-11T00:05:27.769Z,82.41
2015-09-11T00:05:40.081Z,82.12
2015-09-11T00:05:52.503Z,82.98
2015-09-11T00:06:04.769Z,83.36
2015-09-11T00:06:17.175Z,83.17
2015-09-11T00:06:29.411Z,83.36
2015-09-11T00:06:41.817Z,83.73
2015-09-11T00:06:54.208Z,83.36
2015-09-11T00:07:06.677Z,83.45
2015-09-11T00:07:19.130Z,83.92
2015-09-11T00:07:31.538Z,83.64
2015-09-11T00:07:43.226Z,83.36
2015-09-11T00:07:54.929Z,83.54
2015-09-11T00:08:07.351Z,83.73
2015-09-11T00:08:19.788Z,83.54
2015-09-11T00:08:32.305Z,83.54
2015-09-11T00:08:44.742Z,83.83
2015-09-11T00:08:57.164Z,83.83
2015-09-11T00:09:09.555Z,83.92
2015-09-11T00:09:22.008Z,84.01
2015-09-11T00:09:34.464Z,84.01
2015-09-11T00:09:46.855Z,84.01
2015-09-11T00:09:59.261Z,83.83
2015-09-11T00:10:11.652Z,83.64
2015-09-11T00:10:24.042Z,83.92
2015-09-11T00:10:36.465Z,83.83
2015-09-11T00:10:48.934Z,83.64
2015-09-11T00:11:01.356Z,83.36
2015-09-11T00:11:13.746Z,83.64
2015-09-11T00:11:26.153Z,83.64
2015-09-11T00:11:38.592Z,83.54
2015-09-11T00:11:51.030Z,83.54
2015-09-11T00:12:03.451Z,83.54
2015-09-11T00:12:15.873Z,83.83
2015-09-11T00:12:28.295Z,83.83
2015-09-11T00:12:40.814Z,83.26
2015-09-11T00:12:53.251Z,83.26
2015-09-11T00:13:05.642Z,83.45
2015-09-11T00:13:18.033Z,83.45
2015-09-11T00:13:30.423Z,83.17
2015-09-11T00:13:42.815Z,83.73
2015-09-11T00:13:55.221Z,83.83
2015-09-11T00:14:07.612Z,83.83
2015-09-11T00:14:20.002Z,83.36
2015-09-11T00:14:32.440Z,83.92
2015-09-11T00:14:44.833Z,84.01
2015-09-11T00:14:57.240Z,83.83
2015-09-11T00:15:09.646Z,83.73
2015-09-11T00:15:22.083Z,83.54
2015-09-11T00:15:34.505Z,83.26
2015-09-11T00:15:46.976Z,83.73
2015-09-11T00:15:59.382Z,83.54
2015-09-11T00:16:11.773Z,83.54
2015-09-11T00:16:24.179Z,83.54
2015-09-11T00:16:36.570Z,83.64
2015-09-11T00:16:48.947Z,83.36
2015-09-11T00:17:01.369Z,83.83
2015-09-11T00:17:13.791Z,83.54
2015-09-11T00:17:26.181Z,83.83
2015-09-11T00:17:38.587Z,83.45
2015-09-11T00:17:50.963Z,84.01
2015-09-11T00:18:03.354Z,84.3
2015-09-11T00:18:15.760Z,84.3
2015-09-11T00:18:28.151Z,84.2
2015-09-11T00:18:40.607Z,84.49
2015-09-11T00:18:53.029Z,84.11
2015-09-11T00:19:05.466Z,84.58
2015-09-11T00:19:17.904Z,84.49
2015-09-11T00:19:30.326Z,84.39
2015-09-11T00:19:42.780Z,84.3
2015-09-11T00:19:55.186Z,84.3
2015-09-11T00:20:07.577Z,84.11
2015-09-11T00:20:19.999Z,83.64
2015-09-11T00:20:32.405Z,83.83
2015-09-11T00:20:44.798Z,83.54
2015-09-11T00:20:57.188Z,83.73
2015-09-11T00:21:09.594Z,83.83
2015-09-11T00:21:21.985Z,83.26
2015-09-11T00:21:34.376Z,83.26
2015-09-11T00:21:46.893Z,83.83
2015-09-11T00:21:59.331Z,83.92
2015-09-11T00:22:11.050Z,83.64
2015-09-11T00:22:23.550Z,83.83
2015-09-11T00:22:36.034Z,83.73
2015-09-11T00:22:48.458Z,84.01
2015-09-11T00:23:00.895Z,84.01
2015-09-11T00:23:13.286Z,84.11
2015-09-11T00:23:25.692Z,84.39
2015-09-11T00:23:38.177Z,84.77
2015-09-11T00:23:50.600Z,84.77
2015-09-11T00:24:03.007Z,85.05
2015-09-11T00:24:15.429Z,85.34
2015-09-11T00:24:27.835Z,85.43
2015-09-11T00:24:40.272Z,85.62
2015-09-11T00:24:52.681Z,86
2015-09-11T00:25:05.102Z,86.29
2015-09-11T00:25:17.509Z,86
2015-09-11T00:25:29.743Z,86.38
2015-09-11T00:25:42.165Z,86.38
2015-09-11T00:25:54.620Z,86.76
2015-09-11T00:26:07.151Z,86.94
2015-09-11T00:26:19.558Z,86.47
2015-09-11T00:26:31.948Z,86.66
2015-09-11T00:26:44.354Z,86.38
2015-09-11T00:26:56.747Z,86.19
2015-09-11T00:27:09.153Z,86.38
2015-09-11T00:27:21.560Z,86.19
2015-09-11T00:27:34.028Z,86.47
2015-09-11T00:27:46.513Z,86.38
2015-09-11T00:27:58.905Z,86.1
2015-09-11T00:28:10.608Z,86.1
2015-09-11T00:28:23.015Z,86
2015-09-11T00:28:35.421Z,85.72
2015-09-11T00:28:47.905Z,86
2015-09-11T00:29:00.359Z,85.24
2015-09-11T00:29:12.781Z,85.34
2015-09-11T00:29:25.203Z,85.24
2015-09-11T00:29:37.594Z,84.77
2015-09-11T00:29:50.078Z,84.96
2015-09-11T00:30:02.472Z,85.15
2015-09-11T00:30:14.862Z,84.96
2015-09-11T00:30:27.284Z,84.68
2015-09-11T00:30:39.659Z,85.05
2015-09-11T00:30:52.081Z,84.86
2015-09-11T00:31:04.458Z,83.92
2015-09-11T00:31:16.864Z,84.49
2015-09-11T00:31:29.271Z,84.2
2015-09-11T00:31:41.677Z,84.39
2015-09-11T00:31:54.099Z,84.39
2015-09-11T00:32:06.538Z,84.2
2015-09-11T00:32:17.538Z,84.3
2015-09-11T00:32:29.929Z,84.2
2015-09-11T00:32:42.320Z,84.39
2015-09-11T00:32:54.710Z,84.58
2015-09-11T00:33:07.102Z,85.15
2015-09-11T00:33:19.524Z,84.86
2015-09-11T00:33:31.914Z,84.77
2015-09-11T00:33:44.305Z,84.68
2015-09-11T00:33:56.696Z,84.96
2015-09-11T00:34:09.089Z,85.24
2015-09-11T00:34:21.511Z,85.34
2015-09-11T00:34:33.917Z,84.96
2015-09-11T00:34:46.324Z,85.15
2015-09-11T00:34:58.746Z,85.05
2015-09-11T00:35:11.168Z,85.24
2015-09-11T00:35:23.606Z,84.96
2015-09-11T00:35:36.043Z,85.34
2015-09-11T00:35:48.465Z,85.43
2015-09-11T00:36:00.873Z,85.53
2015-09-11T00:36:13.280Z,85.72
2015-09-11T00:36:25.670Z,85.24
2015-09-11T00:36:38.092Z,85.53
2015-09-11T00:36:50.467Z,86.19
2015-09-11T00:37:02.860Z,85.91
2015-09-11T00:37:15.250Z,85.72
2015-09-11T00:37:27.641Z,86.1
2015-09-11T00:37:40.032Z,86.1
2015-09-11T00:37:52.454Z,86.19
2015-09-11T00:38:04.846Z,86.85
2015-09-11T00:38:17.252Z,87.04
2015-09-11T00:38:29.674Z,87.32
2015-09-11T00:38:42.096Z,86.85
2015-09-11T00:38:54.549Z,86.94
2015-09-11T00:39:07.005Z,87.42
2015-09-11T00:39:19.412Z,87.23
2015-09-11T00:39:31.802Z,87.32
2015-09-11T00:39:44.193Z,87.61
2015-09-11T00:39:56.584Z,87.61
2015-09-11T00:40:08.992Z,86.85
2015-09-11T00:40:21.445Z,86.76
2015-09-11T00:40:33.851Z,86.85
2015-09-11T00:40:46.242Z,87.04
2015-09-11T00:40:58.648Z,87.04
2015-09-11T00:41:11.087Z,87.04
2015-09-11T00:41:23.481Z,86.38
2015-09-11T00:41:35.887Z,86.19
2015-09-11T00:41:48.325Z,86.19
2015-09-11T00:42:00.747Z,86.19
2015-09-11T00:42:13.155Z,86
2015-09-11T00:42:25.608Z,86.47
2015-09-11T00:42:38.030Z,85.62
2015-09-11T00:42:50.421Z,85.81
2015-09-11T00:43:02.858Z,86.1
2015-09-11T00:43:15.298Z,86
2015-09-11T00:43:27.704Z,85.72
2015-09-11T00:43:40.094Z,85.43
2015-09-11T00:43:52.485Z,85.34
2015-09-11T00:44:04.891Z,85.34
2015-09-11T00:44:17.332Z,85.05
2015-09-11T00:44:29.738Z,85.15
2015-09-11T00:44:42.144Z,85.24
2015-09-11T00:44:54.410Z,85.43
2015-09-11T00:45:06.801Z,84.96
2015-09-11T00:45:19.208Z,85.05
2015-09-11T00:45:31.614Z,85.43
2015-09-11T00:45:44.020Z,85.24
2015-09-11T00:45:56.442Z,84.68
2015-09-11T00:46:08.864Z,84.86
2015-09-11T00:46:21.304Z,84.77
2015-09-11T00:46:33.694Z,85.05
2015-09-11T00:46:46.085Z,84.77
2015-09-11T00:46:58.475Z,84.86
2015-09-11T00:47:10.868Z,84.96
2015-09-11T00:47:23.274Z,84.39
2015-09-11T00:47:35.727Z,84.39
2015-09-11T00:47:48.118Z,84.39
2015-09-11T00:48:00.524Z,84.11
2015-09-11T00:48:12.917Z,84.11
2015-09-11T00:48:25.323Z,84.11
2015-09-11T00:48:37.761Z,84.01
2015-09-11T00:48:50.183Z,83.92
2015-09-11T00:49:02.636Z,84.3
2015-09-11T00:49:15.060Z,84.39
2015-09-11T00:49:27.497Z,84.39
2015-09-11T00:49:39.919Z,84.11
2015-09-11T00:49:52.325Z,84.3
2015-09-11T00:50:04.716Z,84.2
2015-09-11T00:50:17.108Z,84.2
2015-09-11T00:50:29.530Z,83.83
2015-09-11T00:50:41.937Z,83.92
2015-09-11T00:50:53.655Z,83.73
2015-09-11T00:51:06.062Z,83.36
2015-09-11T00:51:18.454Z,84.01
2015-09-11T00:51:30.860Z,83.45
2015-09-11T00:51:43.298Z,83.17
2015-09-11T00:51:55.704Z,83.45
2015-09-11T00:52:08.110Z,83.54
2015-09-11T00:52:20.519Z,83.45
2015-09-11T00:52:32.956Z,83.54
2015-09-11T00:52:45.441Z,83.64
2015-09-11T00:52:57.878Z,83.36
2015-09-11T00:53:10.269Z,83.36
2015-09-11T00:53:22.677Z,83.36
2015-09-11T00:53:35.083Z,83.17
2015-09-11T00:53:47.474Z,82.98
2015-09-11T00:53:59.896Z,83.07
2015-09-11T00:54:12.302Z,83.07
2015-09-11T00:54:24.741Z,83.17
2015-09-11T00:54:37.179Z,83.17
2015-09-11T00:54:49.585Z,83.17
2015-09-11T00:55:01.991Z,83.36
2015-09-11T00:55:14.398Z,83.36
2015-09-11T00:55:26.836Z,82.98
2015-09-11T00:55:39.258Z,83.26
2015-09-11T00:55:51.680Z,82.98
2015-09-11T00:56:04.102Z,82.12
2015-09-11T00:56:16.524Z,82.69
2015-09-11T00:56:28.932Z,82.41
2015-09-11T00:56:41.323Z,82.69
2015-09-11T00:56:53.713Z,82.03
2015-09-11T00:57:06.119Z,82.31
2015-09-11T00:57:18.526Z,82.22
2015-09-11T00:57:30.919Z,82.12
2015-09-11T00:57:43.326Z,82.22
2015-09-11T00:57:55.732Z,82.31
2015-09-11T00:58:08.122Z,82.5
2015-09-11T00:58:20.372Z,82.12
2015-09-11T00:58:32.796Z,82.22
2015-09-11T00:58:45.218Z,81.93
2015-09-11T00:58:57.624Z,81.93
2015-09-11T00:59:10.062Z,81.74
2015-09-11T00:59:22.484Z,81.93
2015-09-11T00:59:34.923Z,81.84
2015-09-11T00:59:47.376Z,81.74
2015-09-11T00:59:59.798Z,82.12
2015-09-11T01:00:12.189Z,81.93
2015-09-11T01:00:24.595Z,82.31
2015-09-11T01:00:37.019Z,82.12
2015-09-11T01:00:49.441Z,82.22
2015-09-11T01:01:01.832Z,81.93
2015-09-11T01:01:14.238Z,81.93
2015-09-11T01:01:26.628Z,81.74
2015-09-11T01:01:39.051Z,81.65
2015-09-11T01:01:51.458Z,82.03
2015-09-11T01:02:03.879Z,82.12
2015-09-11T01:02:16.317Z,82.03
2015-09-11T01:02:28.739Z,82.03
2015-09-11T01:02:41.164Z,81.93
2015-09-11T01:02:53.601Z,82.03
2015-09-11T01:03:06.039Z,82.03
2015-09-11T01:03:18.476Z,81.74
2015-09-11T01:03:30.867Z,81.56
2015-09-11T01:03:43.258Z,81.46
2015-09-11T01:03:55.649Z,81.27
2015-09-11T01:04:07.899Z,81.18
2015-09-11T01:04:20.290Z,80.52
2015-09-11T01:04:32.680Z,80.24
2015-09-11T01:04:45.073Z,80.24
2015-09-11T01:04:57.479Z,80.24
2015-09-11T01:05:09.870Z,80.33
2015-09-11T01:05:22.276Z,79.95
2015-09-11T01:05:34.682Z,79.95
2015-09-11T01:05:47.122Z,80.05
2015-09-11T01:05:59.544Z,80.05
2015-09-11T01:06:11.966Z,79.76
2015-09-11T01:06:24.387Z,79.76
2015-09-11T01:06:36.825Z,80.14
2015-09-11T01:06:49.250Z,80.05
2015-09-11T01:07:01.640Z,80.14
2015-09-11T01:07:14.047Z,80.62
2015-09-11T01:07:26.437Z,80.52
2015-09-11T01:07:38.844Z,80.71
2015-09-11T01:07:50.532Z,81.18
2015-09-11T01:08:02.954Z,81.37
2015-09-11T01:08:15.360Z,81.46
2015-09-11T01:08:27.766Z,81.46
2015-09-11T01:08:40.188Z,81.37
2015-09-11T01:08:52.612Z,81.56
2015-09-11T01:09:05.034Z,81.27
2015-09-11T01:09:17.472Z,82.12
2015-09-11T01:09:29.893Z,81.93
2015-09-11T01:09:42.300Z,81.93
2015-09-11T01:09:54.692Z,81.93
2015-09-11T01:10:06.395Z,81.93
2015-09-11T01:10:18.786Z,81.65
2015-09-11T01:10:31.192Z,81.93
2015-09-11T01:10:43.583Z,82.03
2015-09-11T01:10:55.992Z,81.65
2015-09-11T01:11:08.398Z,82.03
2015-09-11T01:11:20.789Z,82.03
2015-09-11T01:11:33.180Z,82.12
2015-09-11T01:11:45.602Z,82.22
2015-09-11T01:11:58.009Z,81.93
2015-09-11T01:12:10.415Z,81.84
2015-09-11T01:12:22.837Z,81.84
2015-09-11T01:12:35.290Z,81.74
2015-09-11T01:12:47.712Z,81.84
2015-09-11T01:13:00.167Z,81.27
2015-09-11T01:13:12.589Z,80.8
2015-09-11T01:13:24.995Z,81.27
2015-09-11T01:13:37.386Z,81.46
2015-09-11T01:13:49.778Z,81.18
2015-09-11T01:14:02.169Z,81.56
2015-09-11T01:14:14.575Z,81.46
2015-09-11T01:14:26.966Z,81.37
2015-09-11T01:14:39.372Z,81.56
2015-09-11T01:14:51.765Z,81.46
2015-09-11T01:15:04.155Z,80.99
2015-09-11T01:15:16.577Z,80.99
2015-09-11T01:15:28.999Z,81.09
2015-09-11T01:15:41.405Z,81.18
2015-09-11T01:15:53.829Z,81.46
2015-09-11T01:16:06.267Z,81.18
2015-09-11T01:16:18.689Z,81.93
2015-09-11T01:16:31.126Z,81.84
2015-09-11T01:16:43.548Z,81.93
2015-09-11T01:16:55.988Z,82.03
2015-09-11T01:17:08.378Z,81.84
2015-09-11T01:17:20.769Z,81.37
2015-09-11T01:17:33.175Z,81.27
2015-09-11T01:17:45.566Z,81.56
2015-09-11T01:17:57.974Z,81.27
2015-09-11T01:18:10.380Z,81.46
2015-09-11T01:18:22.771Z,80.9
2015-09-11T01:18:35.161Z,80.62
2015-09-11T01:18:47.599Z,80.62
2015-09-11T01:19:00.007Z,80.33
2015-09-11T01:19:12.413Z,80.24
2015-09-11T01:19:24.851Z,80.33
2015-09-11T01:19:37.273Z,80.14
2015-09-11T01:19:49.695Z,80.14
2015-09-11T01:20:02.134Z,79.95
2015-09-11T01:20:13.853Z,80.24
2015-09-11T01:20:26.259Z,79.76
2015-09-11T01:20:38.697Z,79.86
2015-09-11T01:20:51.150Z,79.95
2015-09-11T01:21:03.557Z,79.95
2015-09-11T01:21:15.948Z,79.67
2015-09-11T01:21:28.338Z,79.48
2015-09-11T01:21:40.729Z,79.29
2015-09-11T01:21:53.135Z,79.38
2015-09-11T01:22:05.576Z,79.29
2015-09-11T01:22:18.076Z,78.91
2015-09-11T01:22:30.482Z,79.1
2015-09-11T01:22:42.732Z,78.91
2015-09-11T01:22:55.154Z,78.91
2015-09-11T01:23:07.577Z,78.72
2015-09-11T01:23:20.014Z,78.81
2015-09-11T01:23:32.436Z,78.72
2015-09-11T01:23:44.920Z,78.72
2015-09-11T01:23:57.358Z,78.63
2015-09-11T01:24:09.752Z,78.53
2015-09-11T01:24:22.142Z,77.97
2015-09-11T01:24:34.548Z,77.97
2015-09-11T01:24:46.939Z,77.69
2015-09-11T01:24:59.189Z,77.5
2015-09-11T01:25:11.597Z,77.31
2015-09-11T01:25:23.988Z,77.31
2015-09-11T01:25:36.394Z,77.21
2015-09-11T01:25:48.816Z,77.21
2015-09-11T01:26:01.207Z,77.4
2015-09-11T01:26:13.599Z,76.93
2015-09-11T01:26:26.006Z,77.02
2015-09-11T01:26:38.443Z,77.21
2015-09-11T01:26:50.865Z,77.4
2015-09-11T01:27:03.302Z,77.31
2015-09-11T01:27:15.789Z,77.5
2015-09-11T01:27:28.179Z,77.59
2015-09-11T01:27:40.586Z,77.69
2015-09-11T01:27:52.976Z,77.12
2015-09-11T01:28:05.492Z,77.21
2015-09-11T01:28:17.899Z,77.5
2015-09-11T01:28:30.321Z,77.59
2015-09-11T01:28:42.696Z,78.16
2015-09-11T01:28:55.102Z,78.06
2015-09-11T01:29:07.493Z,77.69
2015-09-11T01:29:19.933Z,77.87
2015-09-11T01:29:32.340Z,78.53
2015-09-11T01:29:44.746Z,78.63
2015-09-11T01:29:57.168Z,78.34
2015-09-11T01:30:09.590Z,79
2015-09-11T01:30:22.029Z,78.91
2015-09-11T01:30:34.467Z,78.81
2015-09-11T01:30:46.904Z,79
2015-09-11T01:30:59.326Z,79
2015-09-11T01:31:11.732Z,79.38
2015-09-11T01:31:24.140Z,79.57
2015-09-11T01:31:36.530Z,79.48
2015-09-11T01:31:48.921Z,79.86
2015-09-11T01:32:01.311Z,79.86
2015-09-11T01:32:13.733Z,80.05
2015-09-11T01:32:26.158Z,79.95
2015-09-11T01:32:38.549Z,79.95
2015-09-11T01:32:50.986Z,80.05
2015-09-11T01:33:03.393Z,80.24
2015-09-11T01:33:15.799Z,80.24
2015-09-11T01:33:28.347Z,80.24
2015-09-11T01:33:40.769Z,80.14
2015-09-11T01:33:53.206Z,79.86
2015-09-11T01:34:05.659Z,80.24
2015-09-11T01:34:18.065Z,79.76
2015-09-11T01:34:30.475Z,80.05
2015-09-11T01:34:42.725Z,79.1
2015-09-11T01:34:55.178Z,79.38
2015-09-11T01:35:07.568Z,79
2015-09-11T01:35:19.959Z,78.91
2015-09-11T01:35:32.352Z,78.91
2015-09-11T01:35:44.742Z,78.34
2015-09-11T01:35:57.149Z,78.63
2015-09-11T01:36:09.539Z,78.63
2015-09-11T01:36:21.930Z,78.63
2015-09-11T01:36:34.353Z,78.63
2015-09-11T01:36:46.775Z,78.63
2015-09-11T01:36:58.493Z,78.63
2015-09-11T01:37:10.915Z,78.91
2015-09-11T01:37:23.353Z,78.06
2015-09-11T01:37:35.818Z,77.87
2015-09-11T01:37:48.239Z,78.06
2015-09-11T01:38:00.677Z,78.06
2015-09-11T01:38:13.083Z,77.69
2015-09-11T01:38:25.474Z,77.21
2015-09-11T01:38:37.768Z,77.31
2015-09-11T01:38:50.002Z,77.59
2015-09-11T01:39:02.408Z,77.31
2015-09-11T01:39:14.830Z,77.59
2015-09-11T01:39:27.221Z,77.69
2015-09-11T01:39:39.671Z,77.31
2015-09-11T01:39:52.093Z,77.97
2015-09-11T01:40:03.796Z,77.87
2015-09-11T01:40:16.202Z,77.87
2015-09-11T01:40:28.624Z,77.97
2015-09-11T01:40:41.091Z,78.25
2015-09-11T01:40:53.529Z,78.63
2015-09-11T01:41:06.044Z,78.53
2015-09-11T01:41:18.482Z,78.34
2015-09-11T01:41:30.935Z,78.44
2015-09-11T01:41:43.367Z,78.34
2015-09-11T01:41:55.757Z,79
2015-09-11T01:42:08.148Z,78.44
2015-09-11T01:42:20.554Z,78.91
2015-09-11T01:42:32.962Z,78.67
2015-09-11T01:42:45.212Z,78.91
2015-09-11T01:42:57.618Z,78.81
2015-09-11T01:43:09.993Z,78.91
2015-09-11T01:43:22.399Z,78.91
2015-09-11T01:43:34.822Z,79
2015-09-11T01:43:47.213Z,78.91
2015-09-11T01:43:59.635Z,79
2015-09-11T01:44:12.119Z,78.81
2015-09-11T01:44:24.557Z,78.81
2015-09-11T01:44:36.997Z,78.81
2015-09-11T01:44:49.434Z,78.81
2015-09-11T01:45:01.872Z,78.72
2015-09-11T01:45:14.262Z,78.81
2015-09-11T01:45:26.731Z,78.63
2015-09-11T01:45:39.186Z,78.81
2015-09-11T01:45:51.576Z,78.81
2015-09-11T01:46:03.967Z,78.91
2015-09-11T01:46:16.373Z,78.72
2015-09-11T01:46:28.764Z,78.91
2015-09-11T01:46:41.169Z,78.91
2015-09-11T01:46:53.576Z,78.91
2015-09-11T01:47:05.982Z,78.72
2015-09-11T01:47:18.388Z,79
2015-09-11T01:47:30.810Z,79.38
2015-09-11T01:47:43.240Z,79.48
2015-09-11T01:47:55.677Z,79.29
2015-09-11T01:48:08.099Z,79.19
2015-09-11T01:48:20.521Z,79.76
2015-09-11T01:48:32.959Z,80.05
2015-09-11T01:48:45.388Z,79.95
2015-09-11T01:48:57.826Z,79.76
2015-09-11T01:49:10.217Z,79.57
2015-09-11T01:49:21.888Z,80.24
2015-09-11T01:49:34.295Z,80.24
2015-09-11T01:49:46.692Z,80.14
2015-09-11T01:49:59.224Z,80.14
2015-09-11T01:50:11.614Z,79.86
2015-09-11T01:50:24.005Z,79.95
2015-09-11T01:50:36.286Z,80.18
2015-09-11T01:50:48.574Z,79.95
2015-09-11T01:51:00.715Z,79.95
2015-09-11T01:51:13.060Z,79.86
2015-09-11T01:51:25.591Z,79.86
2015-09-11T01:51:38.060Z,80.05
2015-09-11T01:51:50.520Z,80.14
2015-09-11T01:52:02.944Z,80.05
2015-09-11T01:52:15.334Z,80.05
2015-09-11T01:52:27.022Z,80.08
2015-09-11T01:52:39.428Z,80.43
2015-09-11T01:52:51.854Z,80.18
2015-09-11T01:53:04.307Z,80.43
2015-09-11T01:53:15.995Z,80.33
2015-09-11T01:53:28.401Z,80.24
2015-09-11T01:53:40.791Z,80.43
2015-09-11T01:53:53.202Z,80.52
2015-09-11T01:54:05.624Z,80.33
2015-09-11T01:54:18.092Z,80.52
2015-09-11T01:54:30.514Z,80.52
2015-09-11T01:54:42.936Z,80.33
2015-09-11T01:54:55.361Z,80.43
2015-09-11T01:55:07.830Z,80.62
2015-09-11T01:55:20.298Z,80.62
2015-09-11T01:55:32.705Z,80.9
2015-09-11T01:55:45.142Z,80.9
2015-09-11T01:55:57.568Z,80.8
2015-09-11T01:56:09.943Z,80.52
2015-09-11T01:56:22.396Z,80.9
2015-09-11T01:56:34.818Z,81.18
2015-09-11T01:56:47.209Z,81.27
2015-09-11T01:56:59.619Z,81.51
2015-09-11T01:57:12.056Z,81.27
2015-09-11T01:57:24.463Z,81.18
2015-09-11T01:57:36.713Z,81.18
2015-09-11T01:57:49.119Z,81.09
2015-09-11T01:58:01.527Z,80.56
2015-09-11T01:58:13.949Z,81.27
2015-09-11T01:58:26.387Z,80.84
2015-09-11T01:58:38.824Z,81.6
2015-09-11T01:58:51.262Z,81.46
2015-09-11T01:59:03.686Z,81.09
2015-09-11T01:59:16.124Z,81.13
2015-09-11T01:59:28.515Z,81.27
2015-09-11T01:59:40.921Z,81.56
2015-09-11T01:59:53.311Z,81.74
2015-09-11T02:00:05.752Z,81.93
2015-09-11T02:00:18.143Z,81.84
2015-09-11T02:00:30.549Z,82.12
2015-09-11T02:00:42.955Z,82.22
2015-09-11T02:00:55.361Z,82.03
2015-09-11T02:01:07.755Z,81.84
2015-09-11T02:01:20.224Z,81.74
2015-09-11T02:01:32.005Z,81.46
2015-09-11T02:01:44.458Z,81.84
2015-09-11T02:01:56.883Z,82.03
2015-09-11T02:02:09.305Z,81.84
2015-09-11T02:02:21.727Z,81.37
2015-09-11T02:02:34.117Z,81.84
2015-09-11T02:02:46.524Z,81.27
2015-09-11T02:02:58.916Z,81.18
2015-09-11T02:03:11.416Z,81.56
2015-09-11T02:03:23.807Z,81.56
2015-09-11T02:03:36.213Z,81.56
2015-09-11T02:03:48.604Z,81.56
2015-09-11T02:04:01.012Z,81.18
2015-09-11T02:04:13.403Z,80.99
2015-09-11T02:04:25.824Z,81.37
2015-09-11T02:04:38.246Z,81.46
2015-09-11T02:04:50.668Z,81.37
2015-09-11T02:05:03.108Z,81.37
2015-09-11T02:05:15.530Z,81.27
2015-09-11T02:05:27.936Z,81.37
2015-09-11T02:05:40.326Z,81.18
2015-09-11T02:05:52.733Z,81.18
2015-09-11T02:06:05.158Z,81.65
2015-09-11T02:06:17.564Z,81.56
2015-09-11T02:06:29.954Z,81.56
2015-09-11T02:06:42.329Z,81.56
2015-09-11T02:06:54.720Z,81.37
2015-09-11T02:07:07.097Z,81.65
2015-09-11T02:07:19.503Z,81.84
2015-09-11T02:07:31.925Z,81.93
2015-09-11T02:07:44.347Z,82.03
2015-09-11T02:07:56.831Z,81.84
2015-09-11T02:08:09.302Z,81.93
2015-09-11T02:08:21.724Z,81.84
2015-09-11T02:08:34.162Z,81.93
2015-09-11T02:08:46.599Z,82.12
2015-09-11T02:08:59.037Z,82.03
2015-09-11T02:09:11.429Z,81.74
2015-09-11T02:09:23.835Z,81.74
2015-09-11T02:09:36.226Z,81.74
2015-09-11T02:09:48.632Z,82.12
2015-09-11T02:10:01.023Z,82.41
2015-09-11T02:10:13.430Z,82.5
2015-09-11T02:10:25.915Z,82.03
2015-09-11T02:10:38.368Z,82.41
2015-09-11T02:10:50.758Z,82.12
2015-09-11T02:11:03.180Z,82.79
2015-09-11T02:11:15.588Z,82.41
2015-09-11T02:11:27.979Z,82.5
2015-09-11T02:11:40.401Z,82.31
2015-09-11T02:11:52.854Z,82.69
2015-09-11T02:12:05.276Z,83.17
2015-09-11T02:12:17.716Z,83.54
2015-09-11T02:12:30.154Z,83.07
2015-09-11T02:12:42.560Z,83.17
2015-09-11T02:12:54.951Z,83.07
2015-09-11T02:13:07.341Z,83.45
2015-09-11T02:13:19.797Z,83.36
2015-09-11T02:13:32.203Z,83.59
2015-09-11T02:13:44.609Z,83.64
2015-09-11T02:13:57.015Z,83.64
2015-09-11T02:14:09.422Z,83.54
2015-09-11T02:14:21.110Z,83.64
2015-09-11T02:14:33.516Z,83.73
2015-09-11T02:14:45.969Z,83.54
2015-09-11T02:14:58.219Z,83.73
2015-09-11T02:15:10.641Z,83.36
2015-09-11T02:15:23.081Z,83.36
2015-09-11T02:15:35.503Z,83.36
2015-09-11T02:15:47.784Z,83.45
2015-09-11T02:16:00.206Z,83.45
2015-09-11T02:16:12.612Z,83.45
2015-09-11T02:16:25.006Z,83.64
2015-09-11T02:16:37.428Z,83.54
2015-09-11T02:16:49.865Z,83.64
2015-09-11T02:17:02.303Z,83.45
2015-09-11T02:17:14.693Z,83.26
2015-09-11T02:17:27.101Z,83.36
2015-09-11T02:17:39.492Z,83.45
2015-09-11T02:17:51.883Z,83.73
2015-09-11T02:18:04.289Z,83.45
2015-09-11T02:18:16.696Z,83.54
2015-09-11T02:18:29.102Z,83.54
2015-09-11T02:18:41.540Z,83.92
2015-09-11T02:18:54.024Z,83.64
2015-09-11T02:19:06.524Z,84.11
2015-09-11T02:19:18.918Z,83.92
2015-09-11T02:19:31.324Z,84.01
2015-09-11T02:19:43.715Z,84.11
2015-09-11T02:19:56.105Z,84.3
2015-09-11T02:20:08.527Z,84.2
2015-09-11T02:20:21.013Z,84.3
2015-09-11T02:20:33.419Z,84.39
2015-09-11T02:20:45.653Z,84.49
2015-09-11T02:20:58.060Z,84.39
2015-09-11T02:21:10.466Z,84.39
2015-09-11T02:21:22.875Z,84.11
2015-09-11T02:21:35.281Z,84.39
2015-09-11T02:21:47.719Z,83.92
2015-09-11T02:22:00.172Z,84.3
2015-09-11T02:22:12.625Z,84.49
2015-09-11T02:22:25.049Z,84.3
2015-09-11T02:22:37.455Z,84.3
2015-09-11T02:22:49.846Z,84.39
2015-09-11T02:23:02.236Z,84.77
2015-09-11T02:23:14.705Z,84.96
2015-09-11T02:23:27.191Z,84.96
2015-09-11T02:23:39.644Z,85.05
2015-09-11T02:23:52.034Z,84.68
2015-09-11T02:24:04.441Z,84.86
2015-09-11T02:24:16.831Z,84.86
2015-09-11T02:24:29.256Z,84.77
2015-09-11T02:24:41.662Z,84.3
2015-09-11T02:24:54.100Z,84.77
2015-09-11T02:25:06.553Z,84.86
2015-09-11T02:25:18.272Z,84.86
2015-09-11T02:25:30.695Z,84.49
2015-09-11T02:25:43.132Z,84.58
2015-09-11T02:25:54.804Z,84.58
2015-09-11T02:26:07.195Z,85.34
2015-09-11T02:26:19.601Z,84.68
2015-09-11T02:26:32.040Z,85.15
2015-09-11T02:26:44.493Z,84.58
2015-09-11T02:26:56.743Z,85.24
2015-09-11T02:27:09.134Z,85.24
2015-09-11T02:27:21.525Z,85.24
2015-09-11T02:27:33.918Z,85.24
2015-09-11T02:27:46.340Z,84.86
2015-09-11T02:27:58.840Z,85.34
2015-09-11T02:28:11.262Z,85.15
2015-09-11T02:28:23.684Z,85.24
2015-09-11T02:28:36.107Z,85.43
2015-09-11T02:28:48.544Z,85.15
2015-09-11T02:29:00.966Z,85.15
2015-09-11T02:29:13.388Z,84.96
2015-09-11T02:29:25.779Z,84.77
2015-09-11T02:29:38.171Z,84.96
2015-09-11T02:29:50.593Z,85.15
2015-09-11T02:30:02.999Z,85.15
2015-09-11T02:30:15.390Z,85.43
2015-09-11T02:30:27.781Z,85.43
2015-09-11T02:30:40.189Z,85.34
2015-09-11T02:30:52.580Z,84.68
2015-09-11T02:31:05.001Z,84.77
2015-09-11T02:31:17.439Z,84.96
2015-09-11T02:31:29.876Z,84.68
2015-09-11T02:31:42.285Z,84.86
2015-09-11T02:31:54.707Z,84.86
2015-09-11T02:32:07.191Z,84.86
2015-09-11T02:32:19.613Z,84.77
2015-09-11T02:32:32.066Z,84.77
2015-09-11T02:32:43.771Z,84.77
2015-09-11T02:32:56.162Z,84.77
2015-09-11T02:33:08.396Z,84.77
2015-09-11T02:33:20.834Z,84.96
2015-09-11T02:33:33.271Z,84.96
2015-09-11T02:33:45.664Z,84.77
2015-09-11T02:33:58.054Z,84.2
2015-09-11T02:34:10.461Z,84.01
2015-09-11T02:34:22.851Z,83.92
2015-09-11T02:34:35.242Z,84.39
2015-09-11T02:34:47.666Z,84.3
2015-09-11T02:35:00.134Z,84.49
2015-09-11T02:35:12.572Z,84.3
2015-09-11T02:35:24.994Z,84.39
2015-09-11T02:35:37.416Z,84.2
2015-09-11T02:35:49.683Z,83.92
2015-09-11T02:36:02.090Z,83.92
2015-09-11T02:36:14.480Z,83.83
2015-09-11T02:36:26.871Z,84.01
2015-09-11T02:36:39.308Z,84.11
2015-09-11T02:36:51.700Z,84.11
2015-09-11T02:37:04.091Z,83.73
2015-09-11T02:37:15.794Z,83.64
2015-09-11T02:37:28.247Z,83.83
2015-09-11T02:37:40.684Z,83.92
2015-09-11T02:37:53.077Z,83.45
2015-09-11T02:38:05.483Z,83.83
2015-09-11T02:38:17.889Z,84.01
2015-09-11T02:38:30.311Z,84.01
2015-09-11T02:38:42.733Z,83.92
2015-09-11T02:38:55.188Z,84.2
2015-09-11T02:39:07.626Z,84.01
2015-09-11T02:39:20.048Z,84.11
2015-09-11T02:39:31.751Z,84.11
2015-09-11T02:39:44.141Z,84.39
2015-09-11T02:39:56.550Z,84.39
2015-09-11T02:40:08.956Z,84.39
2015-09-11T02:40:21.347Z,84.39